sensor_id;sensor_type;location;lat;lon;timestamp;temperature;humidity
55777;DHT22;54079;44.540;18.784;2023-09-30T00:01:22;14.30;99.90
55777;DHT22;54079;44.540;18.784;2023-09-30T00:03:48;14.10;99.90
55777;DHT22;54079;44.540;18.784;2023-09-30T00:06:14;14.10;99.90
55777;DHT22;54079;44.540;18.784;2023-09-30T00:08:39;14.20;99.90
55777;DHT22;54079;44.540;18.784;2023-09-30T00:11:07;14.20;99.90
55777;DHT22;54079;44.540;18.784;2023-09-30T00:13:33;14.30;99.90
55777;DHT22;54079;44.540;18.784;2023-09-30T00:15:59;14.30;99.90
55777;DHT22;54079;44.540;18.784;2023-09-30T00:18:26;14.30;99.90
55777;DHT22;54079;44.540;18.784;2023-09-30T00:20:53;14.30;99.90
55777;DHT22;54079;44.540;18.784;2023-09-30T00:23:19;14.30;99.90
55777;DHT22;54079;44.540;18.784;2023-09-30T00:25:47;14.40;99.90
55777;DHT22;54079;44.540;18.784;2023-09-30T00:28:14;14.30;99.90
55777;DHT22;54079;44.540;18.784;2023-09-30T00:30:40;14.30;99.90
55777;DHT22;54079;44.540;18.784;2023-09-30T00:33:06;14.10;99.90
55777;DHT22;54079;44.540;18.784;2023-09-30T00:35:33;13.70;99.90
55777;DHT22;54079;44.540;18.784;2023-09-30T00:37:59;13.60;99.90
55777;DHT22;54079;44.540;18.784;2023-09-30T00:40:25;13.70;99.90
55777;DHT22;54079;44.540;18.784;2023-09-30T00:42:51;13.80;99.90
55777;DHT22;54079;44.540;18.784;2023-09-30T00:45:17;13.90;99.90
55777;DHT22;54079;44.540;18.784;2023-09-30T00:47:43;13.70;99.90
55777;DHT22;54079;44.540;18.784;2023-09-30T00:50:09;13.80;99.90
55777;DHT22;54079;44.540;18.784;2023-09-30T00:52:38;13.90;99.90
55777;DHT22;54079;44.540;18.784;2023-09-30T00:55:04;13.90;99.90
55777;DHT22;54079;44.540;18.784;2023-09-30T00:57:31;13.90;99.90
55777;DHT22;54079;44.540;18.784;2023-09-30T00:59:58;13.80;99.90
55777;DHT22;54079;44.540;18.784;2023-09-30T01:02:25;13.80;99.90
55777;DHT22;54079;44.540;18.784;2023-09-30T01:04:52;13.80;99.90
55777;DHT22;54079;44.540;18.784;2023-09-30T01:07:19;13.90;99.90
55777;DHT22;54079;44.540;18.784;2023-09-30T01:09:48;13.90;99.90
55777;DHT22;54079;44.540;18.784;2023-09-30T01:12:14;13.90;99.90
55777;DHT22;54079;44.540;18.784;2023-09-30T01:14:39;13.90;99.90
55777;DHT22;54079;44.540;18.784;2023-09-30T01:17:08;13.80;99.90
55777;DHT22;54079;44.540;18.784;2023-09-30T01:19:34;13.80;99.90
55777;DHT22;54079;44.540;18.784;2023-09-30T01:22:00;13.90;99.90
55777;DHT22;54079;44.540;18.784;2023-09-30T01:24:31;13.80;99.90
55777;DHT22;54079;44.540;18.784;2023-09-30T01:27:03;13.80;99.90
55777;DHT22;54079;44.540;18.784;2023-09-30T01:29:29;13.70;99.90
55777;DHT22;54079;44.540;18.784;2023-09-30T01:31:55;13.70;99.90
55777;DHT22;54079;44.540;18.784;2023-09-30T01:34:21;13.80;99.90
55777;DHT22;54079;44.540;18.784;2023-09-30T01:36:47;13.80;99.90
55777;DHT22;54079;44.540;18.784;2023-09-30T01:39:13;13.60;99.90
55777;DHT22;54079;44.540;18.784;2023-09-30T01:41:40;13.60;99.90
55777;DHT22;54079;44.540;18.784;2023-09-30T01:44:06;13.70;99.90
55777;DHT22;54079;44.540;18.784;2023-09-30T01:46:32;13.50;99.90
55777;DHT22;54079;44.540;18.784;2023-09-30T01:48:58;13.40;99.90
55777;DHT22;54079;44.540;18.784;2023-09-30T01:51:24;13.60;99.90
55777;DHT22;54079;44.540;18.784;2023-09-30T01:53:50;13.60;99.90
55777;DHT22;54079;44.540;18.784;2023-09-30T01:56:16;13.60;99.90
55777;DHT22;54079;44.540;18.784;2023-09-30T01:58:41;13.60;99.90
55777;DHT22;54079;44.540;18.784;2023-09-30T02:01:08;13.40;99.90
55777;DHT22;54079;44.540;18.784;2023-09-30T02:03:34;13.50;99.90
55777;DHT22;54079;44.540;18.784;2023-09-30T02:06:00;13.60;99.90
55777;DHT22;54079;44.540;18.784;2023-09-30T02:08:26;13.50;99.90
55777;DHT22;54079;44.540;18.784;2023-09-30T02:10:52;13.40;99.90
55777;DHT22;54079;44.540;18.784;2023-09-30T02:13:19;13.60;99.90
55777;DHT22;54079;44.540;18.784;2023-09-30T02:15:46;13.50;99.90
55777;DHT22;54079;44.540;18.784;2023-09-30T02:18:12;13.50;99.90
55777;DHT22;54079;44.540;18.784;2023-09-30T02:20:38;13.60;99.90
55777;DHT22;54079;44.540;18.784;2023-09-30T02:23:09;13.60;99.90
55777;DHT22;54079;44.540;18.784;2023-09-30T02:25:39;13.60;99.90
55777;DHT22;54079;44.540;18.784;2023-09-30T02:28:06;13.50;99.90
55777;DHT22;54079;44.540;18.784;2023-09-30T02:30:32;13.60;99.90
55777;DHT22;54079;44.540;18.784;2023-09-30T02:32:58;13.60;99.90
55777;DHT22;54079;44.540;18.784;2023-09-30T02:35:25;13.50;99.90
55777;DHT22;54079;44.540;18.784;2023-09-30T02:37:52;13.40;99.90
55777;DHT22;54079;44.540;18.784;2023-09-30T02:40:18;13.30;99.90
55777;DHT22;54079;44.540;18.784;2023-09-30T02:42:45;13.40;99.90
55777;DHT22;54079;44.540;18.784;2023-09-30T02:45:12;13.40;99.90
55777;DHT22;54079;44.540;18.784;2023-09-30T02:47:38;13.50;99.90
55777;DHT22;54079;44.540;18.784;2023-09-30T02:50:06;13.50;99.90
55777;DHT22;54079;44.540;18.784;2023-09-30T02:52:38;13.50;99.90
55777;DHT22;54079;44.540;18.784;2023-09-30T02:55:08;13.60;99.90
55777;DHT22;54079;44.540;18.784;2023-09-30T02:57:34;13.50;99.90
55777;DHT22;54079;44.540;18.784;2023-09-30T03:00:05;13.60;99.90
55777;DHT22;54079;44.540;18.784;2023-09-30T03:02:50;13.50;99.90
55777;DHT22;54079;44.540;18.784;2023-09-30T03:05:17;13.50;99.90
55777;DHT22;54079;44.540;18.784;2023-09-30T03:07:43;13.40;99.90
55777;DHT22;54079;44.540;18.784;2023-09-30T03:10:09;13.40;99.90
55777;DHT22;54079;44.540;18.784;2023-09-30T03:12:35;13.30;99.90
55777;DHT22;54079;44.540;18.784;2023-09-30T03:15:02;13.20;99.90
55777;DHT22;54079;44.540;18.784;2023-09-30T03:17:32;13.20;99.90
55777;DHT22;54079;44.540;18.784;2023-09-30T03:19:59;13.30;99.90
55777;DHT22;54079;44.540;18.784;2023-09-30T03:22:27;13.30;99.90
55777;DHT22;54079;44.540;18.784;2023-09-30T03:24:56;13.30;99.90
55777;DHT22;54079;44.540;18.784;2023-09-30T03:27:23;13.20;99.90
55777;DHT22;54079;44.540;18.784;2023-09-30T03:29:49;13.20;99.90
55777;DHT22;54079;44.540;18.784;2023-09-30T03:32:15;13.20;99.90
55777;DHT22;54079;44.540;18.784;2023-09-30T03:34:41;13.20;99.90
55777;DHT22;54079;44.540;18.784;2023-09-30T03:37:10;13.20;99.90
55777;DHT22;54079;44.540;18.784;2023-09-30T03:39:36;13.30;99.90
55777;DHT22;54079;44.540;18.784;2023-09-30T03:42:02;13.20;99.90
55777;DHT22;54079;44.540;18.784;2023-09-30T03:44:29;13.30;99.90
55777;DHT22;54079;44.540;18.784;2023-09-30T03:46:54;13.20;99.90
55777;DHT22;54079;44.540;18.784;2023-09-30T03:49:20;13.10;99.90
55777;DHT22;54079;44.540;18.784;2023-09-30T03:51:46;13.00;99.90
55777;DHT22;54079;44.540;18.784;2023-09-30T03:54:12;12.90;99.90
55777;DHT22;54079;44.540;18.784;2023-09-30T03:56:38;13.00;99.90
55777;DHT22;54079;44.540;18.784;2023-09-30T03:59:04;13.00;99.90
55777;DHT22;54079;44.540;18.784;2023-09-30T04:01:30;13.00;99.90
55777;DHT22;54079;44.540;18.784;2023-09-30T04:03:56;13.00;99.90
55777;DHT22;54079;44.540;18.784;2023-09-30T04:06:22;12.90;99.90
55777;DHT22;54079;44.540;18.784;2023-09-30T04:08:49;12.90;99.90
55777;DHT22;54079;44.540;18.784;2023-09-30T04:11:15;13.00;99.90
55777;DHT22;54079;44.540;18.784;2023-09-30T04:13:46;12.90;99.90
55777;DHT22;54079;44.540;18.784;2023-09-30T04:16:12;12.80;99.90
55777;DHT22;54079;44.540;18.784;2023-09-30T04:18:38;12.70;99.90
55777;DHT22;54079;44.540;18.784;2023-09-30T04:21:06;12.60;99.90
55777;DHT22;54079;44.540;18.784;2023-09-30T04:23:33;12.70;99.90
55777;DHT22;54079;44.540;18.784;2023-09-30T04:26:02;12.70;99.90
55777;DHT22;54079;44.540;18.784;2023-09-30T04:28:28;12.70;99.90
55777;DHT22;54079;44.540;18.784;2023-09-30T04:30:54;12.60;99.90
55777;DHT22;54079;44.540;18.784;2023-09-30T04:33:20;12.80;99.90
55777;DHT22;54079;44.540;18.784;2023-09-30T04:35:50;12.90;99.90
55777;DHT22;54079;44.540;18.784;2023-09-30T04:38:16;12.90;99.90
55777;DHT22;54079;44.540;18.784;2023-09-30T04:40:41;12.90;99.90
55777;DHT22;54079;44.540;18.784;2023-09-30T04:43:10;12.90;99.90
55777;DHT22;54079;44.540;18.784;2023-09-30T04:45:36;12.90;99.90
55777;DHT22;54079;44.540;18.784;2023-09-30T04:48:02;13.00;99.90
55777;DHT22;54079;44.540;18.784;2023-09-30T04:50:29;12.90;99.90
55777;DHT22;54079;44.540;18.784;2023-09-30T04:52:56;12.80;99.90
55777;DHT22;54079;44.540;18.784;2023-09-30T04:55:23;12.90;99.90
55777;DHT22;54079;44.540;18.784;2023-09-30T04:57:49;13.00;99.90
55777;DHT22;54079;44.540;18.784;2023-09-30T05:00:18;13.00;99.90
55777;DHT22;54079;44.540;18.784;2023-09-30T05:02:47;13.00;99.90
55777;DHT22;54079;44.540;18.784;2023-09-30T05:05:13;13.00;99.90
55777;DHT22;54079;44.540;18.784;2023-09-30T05:07:40;13.10;99.90
55777;DHT22;54079;44.540;18.784;2023-09-30T05:10:10;13.20;99.90
55777;DHT22;54079;44.540;18.784;2023-09-30T05:12:42;13.30;99.90
55777;DHT22;54079;44.540;18.784;2023-09-30T05:15:12;13.40;99.90
55777;DHT22;54079;44.540;18.784;2023-09-30T05:17:39;13.50;99.90
55777;DHT22;54079;44.540;18.784;2023-09-30T05:20:05;13.60;99.90
55777;DHT22;54079;44.540;18.784;2023-09-30T05:22:35;13.70;99.90
55777;DHT22;54079;44.540;18.784;2023-09-30T05:25:01;13.70;99.90
55777;DHT22;54079;44.540;18.784;2023-09-30T05:27:27;13.50;99.90
55777;DHT22;54079;44.540;18.784;2023-09-30T05:29:53;13.50;99.90
55777;DHT22;54079;44.540;18.784;2023-09-30T05:32:21;13.70;99.90
55777;DHT22;54079;44.540;18.784;2023-09-30T05:34:48;13.80;99.90
55777;DHT22;54079;44.540;18.784;2023-09-30T05:37:14;13.90;99.90
55777;DHT22;54079;44.540;18.784;2023-09-30T05:39:40;13.90;99.90
55777;DHT22;54079;44.540;18.784;2023-09-30T05:42:06;14.00;99.90
55777;DHT22;54079;44.540;18.784;2023-09-30T05:44:32;14.10;99.90
55777;DHT22;54079;44.540;18.784;2023-09-30T05:46:58;14.10;99.90
55777;DHT22;54079;44.540;18.784;2023-09-30T05:49:25;14.20;99.90
55777;DHT22;54079;44.540;18.784;2023-09-30T05:51:51;14.10;99.90
55777;DHT22;54079;44.540;18.784;2023-09-30T05:54:17;14.00;99.90
55777;DHT22;54079;44.540;18.784;2023-09-30T05:56:43;14.30;99.90
55777;DHT22;54079;44.540;18.784;2023-09-30T05:59:10;14.40;99.90
55777;DHT22;54079;44.540;18.784;2023-09-30T06:01:36;14.50;99.90
55777;DHT22;54079;44.540;18.784;2023-09-30T06:04:03;14.70;99.90
55777;DHT22;54079;44.540;18.784;2023-09-30T06:06:30;14.90;99.90
55777;DHT22;54079;44.540;18.784;2023-09-30T06:08:56;14.70;99.90
55777;DHT22;54079;44.540;18.784;2023-09-30T06:11:26;14.80;99.90
55777;DHT22;54079;44.540;18.784;2023-09-30T06:13:57;14.90;99.90
55777;DHT22;54079;44.540;18.784;2023-09-30T06:16:27;14.90;99.90
55777;DHT22;54079;44.540;18.784;2023-09-30T06:18:53;15.20;99.90
55777;DHT22;54079;44.540;18.784;2023-09-30T06:21:20;15.30;99.90
55777;DHT22;54079;44.540;18.784;2023-09-30T06:23:47;15.50;99.90
55777;DHT22;54079;44.540;18.784;2023-09-30T06:26:14;15.50;99.90
55777;DHT22;54079;44.540;18.784;2023-09-30T06:28:43;15.40;99.90
55777;DHT22;54079;44.540;18.784;2023-09-30T06:31:10;15.40;99.90
55777;DHT22;54079;44.540;18.784;2023-09-30T06:33:37;18.20;99.90
55777;DHT22;54079;44.540;18.784;2023-09-30T06:36:11;22.40;88.80
55777;DHT22;54079;44.540;18.784;2023-09-30T06:38:39;26.10;74.40
55777;DHT22;54079;44.540;18.784;2023-09-30T06:41:05;28.50;67.60
55777;DHT22;54079;44.540;18.784;2023-09-30T06:43:32;30.40;61.60
55777;DHT22;54079;44.540;18.784;2023-09-30T06:45:58;31.60;57.90
55777;DHT22;54079;44.540;18.784;2023-09-30T06:48:24;33.00;55.00
55777;DHT22;54079;44.540;18.784;2023-09-30T06:50:51;34.00;52.40
55777;DHT22;54079;44.540;18.784;2023-09-30T06:53:19;34.00;50.90
55777;DHT22;54079;44.540;18.784;2023-09-30T06:55:47;35.10;49.10
55777;DHT22;54079;44.540;18.784;2023-09-30T06:58:13;36.00;47.80
55777;DHT22;54079;44.540;18.784;2023-09-30T07:00:42;37.00;47.70
55777;DHT22;54079;44.540;18.784;2023-09-30T07:03:08;37.80;46.00
55777;DHT22;54079;44.540;18.784;2023-09-30T07:05:36;38.30;45.20
55777;DHT22;54079;44.540;18.784;2023-09-30T07:08:02;38.90;44.00
55777;DHT22;54079;44.540;18.784;2023-09-30T07:10:29;39.50;42.70
55777;DHT22;54079;44.540;18.784;2023-09-30T07:12:55;40.00;43.20
55777;DHT22;54079;44.540;18.784;2023-09-30T07:15:21;40.20;42.70
55777;DHT22;54079;44.540;18.784;2023-09-30T07:17:47;40.90;42.00
55777;DHT22;54079;44.540;18.784;2023-09-30T07:20:14;41.00;40.70
55777;DHT22;54079;44.540;18.784;2023-09-30T07:22:40;41.50;40.00
55777;DHT22;54079;44.540;18.784;2023-09-30T07:25:07;41.50;40.30
55777;DHT22;54079;44.540;18.784;2023-09-30T07:27:33;42.10;39.80
55777;DHT22;54079;44.540;18.784;2023-09-30T07:29:59;42.60;39.60
55777;DHT22;54079;44.540;18.784;2023-09-30T07:32:25;43.10;39.30
55777;DHT22;54079;44.540;18.784;2023-09-30T07:34:51;42.90;38.70
55777;DHT22;54079;44.540;18.784;2023-09-30T07:37:18;43.90;39.70
55777;DHT22;54079;44.540;18.784;2023-09-30T07:39:44;44.60;38.20
55777;DHT22;54079;44.540;18.784;2023-09-30T07:42:10;44.70;38.50
55777;DHT22;54079;44.540;18.784;2023-09-30T07:44:36;45.00;38.10
55777;DHT22;54079;44.540;18.784;2023-09-30T07:47:04;45.20;37.40
55777;DHT22;54079;44.540;18.784;2023-09-30T07:49:32;45.50;37.30
55777;DHT22;54079;44.540;18.784;2023-09-30T07:51:58;46.00;37.40
55777;DHT22;54079;44.540;18.784;2023-09-30T07:54:24;45.30;36.60
55777;DHT22;54079;44.540;18.784;2023-09-30T07:56:50;45.20;37.00
55777;DHT22;54079;44.540;18.784;2023-09-30T07:59:16;45.80;36.60
55777;DHT22;54079;44.540;18.784;2023-09-30T08:01:42;46.30;36.80
55777;DHT22;54079;44.540;18.784;2023-09-30T08:04:08;46.30;36.80
55777;DHT22;54079;44.540;18.784;2023-09-30T08:06:34;46.80;36.30
55777;DHT22;54079;44.540;18.784;2023-09-30T08:09:00;47.30;36.00
55777;DHT22;54079;44.540;18.784;2023-09-30T08:11:26;46.40;34.70
55777;DHT22;54079;44.540;18.784;2023-09-30T08:13:56;44.30;36.40
55777;DHT22;54079;44.540;18.784;2023-09-30T08:16:24;43.90;36.10
55777;DHT22;54079;44.540;18.784;2023-09-30T08:18:50;45.10;35.70
55777;DHT22;54079;44.540;18.784;2023-09-30T08:21:16;45.80;36.00
55777;DHT22;54079;44.540;18.784;2023-09-30T08:23:42;47.30;35.70
55777;DHT22;54079;44.540;18.784;2023-09-30T08:26:08;46.90;35.60
55777;DHT22;54079;44.540;18.784;2023-09-30T08:28:34;47.30;35.20
55777;DHT22;54079;44.540;18.784;2023-09-30T08:31:04;47.00;34.70
55777;DHT22;54079;44.540;18.784;2023-09-30T08:33:31;47.20;34.60
55777;DHT22;54079;44.540;18.784;2023-09-30T08:36:04;47.40;34.70
55777;DHT22;54079;44.540;18.784;2023-09-30T08:38:37;48.10;34.40
55777;DHT22;54079;44.540;18.784;2023-09-30T08:41:03;47.90;34.60
55777;DHT22;54079;44.540;18.784;2023-09-30T08:43:29;48.00;35.00
55777;DHT22;54079;44.540;18.784;2023-09-30T08:46:02;48.40;34.20
55777;DHT22;54079;44.540;18.784;2023-09-30T08:48:32;48.60;34.00
55777;DHT22;54079;44.540;18.784;2023-09-30T08:50:59;48.80;34.10
55777;DHT22;54079;44.540;18.784;2023-09-30T08:53:26;49.20;33.80
55777;DHT22;54079;44.540;18.784;2023-09-30T08:55:57;49.70;33.90
55777;DHT22;54079;44.540;18.784;2023-09-30T08:58:28;49.90;33.20
55777;DHT22;54079;44.540;18.784;2023-09-30T09:00:55;50.10;33.50
55777;DHT22;54079;44.540;18.784;2023-09-30T09:03:22;50.20;33.50
55777;DHT22;54079;44.540;18.784;2023-09-30T09:05:57;49.50;32.80
55777;DHT22;54079;44.540;18.784;2023-09-30T09:08:26;49.40;33.30
55777;DHT22;54079;44.540;18.784;2023-09-30T09:10:56;48.60;33.60
55777;DHT22;54079;44.540;18.784;2023-09-30T09:13:23;48.60;33.70
55777;DHT22;54079;44.540;18.784;2023-09-30T09:16:05;47.80;34.60
55777;DHT22;54079;44.540;18.784;2023-09-30T09:18:32;43.10;35.60
55777;DHT22;54079;44.540;18.784;2023-09-30T09:21:18;39.80;37.70
55777;DHT22;54079;44.540;18.784;2023-09-30T09:23:50;37.30;39.40
55777;DHT22;54079;44.540;18.784;2023-09-30T09:26:32;35.30;40.50
55777;DHT22;54079;44.540;18.784;2023-09-30T09:29:04;34.00;42.20
55777;DHT22;54079;44.540;18.784;2023-09-30T09:31:34;33.10;43.10
55777;DHT22;54079;44.540;18.784;2023-09-30T09:34:02;32.40;44.10
55777;DHT22;54079;44.540;18.784;2023-09-30T09:36:40;31.90;44.60
55777;DHT22;54079;44.540;18.784;2023-09-30T09:39:06;31.40;45.00
55777;DHT22;54079;44.540;18.784;2023-09-30T09:41:32;31.10;45.30
55777;DHT22;54079;44.540;18.784;2023-09-30T09:43:59;30.80;46.00
55777;DHT22;54079;44.540;18.784;2023-09-30T09:46:27;30.30;45.50
55777;DHT22;54079;44.540;18.784;2023-09-30T09:48:54;29.90;46.70
55777;DHT22;54079;44.540;18.784;2023-09-30T09:51:23;29.70;47.30
55777;DHT22;54079;44.540;18.784;2023-09-30T09:53:50;29.70;47.60
55777;DHT22;54079;44.540;18.784;2023-09-30T09:56:17;29.50;47.20
55777;DHT22;54079;44.540;18.784;2023-09-30T09:58:47;29.50;47.90
55777;DHT22;54079;44.540;18.784;2023-09-30T10:01:13;29.40;48.10
55777;DHT22;54079;44.540;18.784;2023-09-30T10:03:40;29.50;47.50
55777;DHT22;54079;44.540;18.784;2023-09-30T10:06:08;29.80;47.50
55777;DHT22;54079;44.540;18.784;2023-09-30T10:08:43;29.60;47.70
55777;DHT22;54079;44.540;18.784;2023-09-30T10:11:21;29.80;47.10
55777;DHT22;54079;44.540;18.784;2023-09-30T10:13:58;29.80;47.50
55777;DHT22;54079;44.540;18.784;2023-09-30T10:19:20;29.70;47.00
55777;DHT22;54079;44.540;18.784;2023-09-30T10:22:26;30.00;47.00
55777;DHT22;54079;44.540;18.784;2023-09-30T10:24:56;30.00;47.00
55777;DHT22;54079;44.540;18.784;2023-09-30T10:40:50;30.00;47.40
55777;DHT22;54079;44.540;18.784;2023-09-30T10:43:36;30.20;47.10
55777;DHT22;54079;44.540;18.784;2023-09-30T10:46:09;30.30;46.00
55777;DHT22;54079;44.540;18.784;2023-09-30T10:48:50;30.40;46.80
55777;DHT22;54079;44.540;18.784;2023-09-30T10:51:18;30.60;46.90
55777;DHT22;54079;44.540;18.784;2023-09-30T10:53:48;30.50;45.00
55777;DHT22;54079;44.540;18.784;2023-09-30T10:56:18;30.30;46.00
55777;DHT22;54079;44.540;18.784;2023-09-30T10:58:50;30.60;46.50
55777;DHT22;54079;44.540;18.784;2023-09-30T11:01:18;30.80;46.00
55777;DHT22;54079;44.540;18.784;2023-09-30T11:03:46;30.50;46.30
55777;DHT22;54079;44.540;18.784;2023-09-30T11:06:16;29.40;44.70
55777;DHT22;54079;44.540;18.784;2023-09-30T11:09:06;29.70;45.40
55777;DHT22;54079;44.540;18.784;2023-09-30T11:11:40;30.00;46.30
55777;DHT22;54079;44.540;18.784;2023-09-30T11:14:22;29.90;43.80
55777;DHT22;54079;44.540;18.784;2023-09-30T11:16:52;29.60;44.50
55777;DHT22;54079;44.540;18.784;2023-09-30T11:19:20;29.20;45.80
55777;DHT22;54079;44.540;18.784;2023-09-30T11:21:51;29.00;44.70
55777;DHT22;54079;44.540;18.784;2023-09-30T11:24:17;29.30;43.40
55777;DHT22;54079;44.540;18.784;2023-09-30T11:26:47;29.00;42.30
55777;DHT22;54079;44.540;18.784;2023-09-30T11:29:17;28.90;42.00
55777;DHT22;54079;44.540;18.784;2023-09-30T11:31:47;28.70;41.70
55777;DHT22;54079;44.540;18.784;2023-09-30T11:34:17;28.60;42.60
55777;DHT22;54079;44.540;18.784;2023-09-30T11:36:49;28.80;42.00
55777;DHT22;54079;44.540;18.784;2023-09-30T11:39:26;28.80;43.10
55777;DHT22;54079;44.540;18.784;2023-09-30T11:41:53;28.50;45.50
55777;DHT22;54079;44.540;18.784;2023-09-30T11:44:21;28.20;44.10
55777;DHT22;54079;44.540;18.784;2023-09-30T11:46:51;28.00;44.00
55777;DHT22;54079;44.540;18.784;2023-09-30T11:49:37;27.80;46.00
55777;DHT22;54079;44.540;18.784;2023-09-30T11:52:11;27.90;45.80
55777;DHT22;54079;44.540;18.784;2023-09-30T11:54:39;27.60;46.00
55777;DHT22;54079;44.540;18.784;2023-09-30T11:57:15;27.20;44.80
55777;DHT22;54079;44.540;18.784;2023-09-30T11:59:43;27.20;46.90
55777;DHT22;54079;44.540;18.784;2023-09-30T12:02:10;26.70;46.00
55777;DHT22;54079;44.540;18.784;2023-09-30T12:04:36;26.90;45.40
55777;DHT22;54079;44.540;18.784;2023-09-30T12:07:03;27.10;45.60
55777;DHT22;54079;44.540;18.784;2023-09-30T12:09:29;27.00;45.10
55777;DHT22;54079;44.540;18.784;2023-09-30T12:11:56;27.00;46.60
55777;DHT22;54079;44.540;18.784;2023-09-30T12:14:24;26.80;46.90
55777;DHT22;54079;44.540;18.784;2023-09-30T12:16:50;26.60;46.70
55777;DHT22;54079;44.540;18.784;2023-09-30T12:19:19;26.60;46.00
55777;DHT22;54079;44.540;18.784;2023-09-30T12:21:46;26.90;46.20
55777;DHT22;54079;44.540;18.784;2023-09-30T12:24:17;27.20;46.70
55777;DHT22;54079;44.540;18.784;2023-09-30T12:26:45;27.10;46.00
55777;DHT22;54079;44.540;18.784;2023-09-30T12:29:17;27.10;44.80
55777;DHT22;54079;44.540;18.784;2023-09-30T12:31:44;27.10;44.30
55777;DHT22;54079;44.540;18.784;2023-09-30T12:34:10;27.00;46.20
55777;DHT22;54079;44.540;18.784;2023-09-30T12:36:36;26.90;45.60
55777;DHT22;54079;44.540;18.784;2023-09-30T12:39:02;26.70;46.00
55777;DHT22;54079;44.540;18.784;2023-09-30T12:41:39;26.60;46.90
55777;DHT22;54079;44.540;18.784;2023-09-30T12:44:06;26.40;48.10
55777;DHT22;54079;44.540;18.784;2023-09-30T12:46:32;26.50;47.40
55777;DHT22;54079;44.540;18.784;2023-09-30T12:49:01;26.80;48.60
55777;DHT22;54079;44.540;18.784;2023-09-30T12:51:28;26.80;48.10
55777;DHT22;54079;44.540;18.784;2023-09-30T12:53:54;26.70;47.90
55777;DHT22;54079;44.540;18.784;2023-09-30T12:56:20;26.70;48.80
55777;DHT22;54079;44.540;18.784;2023-09-30T12:58:46;26.70;49.50
55777;DHT22;54079;44.540;18.784;2023-09-30T13:01:12;27.00;47.20
55777;DHT22;54079;44.540;18.784;2023-09-30T13:03:39;27.20;46.40
55777;DHT22;54079;44.540;18.784;2023-09-30T13:06:05;26.90;48.60
55777;DHT22;54079;44.540;18.784;2023-09-30T13:08:31;26.80;49.60
55777;DHT22;54079;44.540;18.784;2023-09-30T13:11:00;26.80;50.20
55777;DHT22;54079;44.540;18.784;2023-09-30T13:13:31;26.60;50.20
55777;DHT22;54079;44.540;18.784;2023-09-30T13:16:03;26.10;50.40
55777;DHT22;54079;44.540;18.784;2023-09-30T13:18:33;26.00;51.20
55777;DHT22;54079;44.540;18.784;2023-09-30T13:20:59;26.10;51.80
55777;DHT22;54079;44.540;18.784;2023-09-30T13:23:25;26.00;50.50
55777;DHT22;54079;44.540;18.784;2023-09-30T13:25:53;26.00;51.00
55777;DHT22;54079;44.540;18.784;2023-09-30T13:28:19;25.80;50.50
55777;DHT22;54079;44.540;18.784;2023-09-30T13:30:45;26.00;51.00
55777;DHT22;54079;44.540;18.784;2023-09-30T13:33:11;25.90;51.30
55777;DHT22;54079;44.540;18.784;2023-09-30T13:35:37;25.90;51.70
55777;DHT22;54079;44.540;18.784;2023-09-30T13:38:04;26.00;50.70
55777;DHT22;54079;44.540;18.784;2023-09-30T13:40:30;26.00;50.80
55777;DHT22;54079;44.540;18.784;2023-09-30T13:42:56;25.90;49.90
55777;DHT22;54079;44.540;18.784;2023-09-30T13:45:25;25.80;48.70
55777;DHT22;54079;44.540;18.784;2023-09-30T13:47:53;26.00;49.50
55777;DHT22;54079;44.540;18.784;2023-09-30T13:50:19;26.00;49.10
55777;DHT22;54079;44.540;18.784;2023-09-30T13:52:45;26.10;49.70
55777;DHT22;54079;44.540;18.784;2023-09-30T13:55:11;26.00;49.30
55777;DHT22;54079;44.540;18.784;2023-09-30T13:57:38;26.00;49.80
55777;DHT22;54079;44.540;18.784;2023-09-30T14:00:04;26.00;49.30
55777;DHT22;54079;44.540;18.784;2023-09-30T14:02:33;25.90;50.00
55777;DHT22;54079;44.540;18.784;2023-09-30T14:04:59;25.80;51.20
55777;DHT22;54079;44.540;18.784;2023-09-30T14:07:24;25.80;50.80
55777;DHT22;54079;44.540;18.784;2023-09-30T14:09:51;25.80;51.00
55777;DHT22;54079;44.540;18.784;2023-09-30T14:12:18;25.80;51.00
55777;DHT22;54079;44.540;18.784;2023-09-30T14:14:44;25.80;50.90
55777;DHT22;54079;44.540;18.784;2023-09-30T14:17:10;25.90;50.30
55777;DHT22;54079;44.540;18.784;2023-09-30T14:19:37;26.00;52.00
55777;DHT22;54079;44.540;18.784;2023-09-30T14:22:05;25.90;51.10
55777;DHT22;54079;44.540;18.784;2023-09-30T14:24:32;25.80;51.20
55777;DHT22;54079;44.540;18.784;2023-09-30T14:27:02;25.80;52.00
55777;DHT22;54079;44.540;18.784;2023-09-30T14:29:29;25.60;50.60
55777;DHT22;54079;44.540;18.784;2023-09-30T14:31:55;25.60;50.80
55777;DHT22;54079;44.540;18.784;2023-09-30T14:34:22;25.50;50.80
55777;DHT22;54079;44.540;18.784;2023-09-30T14:36:48;25.60;51.40
55777;DHT22;54079;44.540;18.784;2023-09-30T14:39:14;25.50;51.60
55777;DHT22;54079;44.540;18.784;2023-09-30T14:41:42;25.50;51.60
55777;DHT22;54079;44.540;18.784;2023-09-30T14:44:08;25.50;50.40
55777;DHT22;54079;44.540;18.784;2023-09-30T14:46:40;25.50;51.00
55777;DHT22;54079;44.540;18.784;2023-09-30T14:49:06;25.40;50.70
55777;DHT22;54079;44.540;18.784;2023-09-30T14:51:34;25.40;51.00
55777;DHT22;54079;44.540;18.784;2023-09-30T14:54:03;25.40;51.00
55777;DHT22;54079;44.540;18.784;2023-09-30T14:56:29;25.50;51.60
55777;DHT22;54079;44.540;18.784;2023-09-30T14:58:55;25.50;51.40
55777;DHT22;54079;44.540;18.784;2023-09-30T15:01:21;25.40;51.90
55777;DHT22;54079;44.540;18.784;2023-09-30T15:03:47;25.30;52.10
55777;DHT22;54079;44.540;18.784;2023-09-30T15:06:14;25.30;52.00
55777;DHT22;54079;44.540;18.784;2023-09-30T15:08:40;25.30;51.90
55777;DHT22;54079;44.540;18.784;2023-09-30T15:11:13;25.30;52.00
55777;DHT22;54079;44.540;18.784;2023-09-30T15:13:40;25.30;52.90
55777;DHT22;54079;44.540;18.784;2023-09-30T15:16:20;25.30;52.50
55777;DHT22;54079;44.540;18.784;2023-09-30T15:18:47;25.10;52.40
55777;DHT22;54079;44.540;18.784;2023-09-30T15:21:14;25.10;52.50
55777;DHT22;54079;44.540;18.784;2023-09-30T15:23:41;25.10;53.10
55777;DHT22;54079;44.540;18.784;2023-09-30T15:26:08;24.90;52.70
55777;DHT22;54079;44.540;18.784;2023-09-30T15:28:34;25.00;53.10
55777;DHT22;54079;44.540;18.784;2023-09-30T15:31:01;24.90;53.30
55777;DHT22;54079;44.540;18.784;2023-09-30T15:33:28;24.80;52.10
55777;DHT22;54079;44.540;18.784;2023-09-30T15:35:54;24.70;53.30